createdAt,value
2023-05-01T00:00:09.335Z,59.04
2023-05-01T00:02:57.398Z,59.28
2023-05-01T00:05:25.539Z,59.41
2023-05-01T00:07:53.507Z,58.94
2023-05-01T00:10:23.570Z,58.91
2023-05-01T00:12:51.396Z,58.98
2023-05-01T00:15:19.131Z,59.02
2023-05-01T00:17:47.110Z,59.13
2023-05-01T00:20:14.913Z,59.41
2023-05-01T00:22:42.747Z,59.77
2023-05-01T00:25:10.888Z,59.53
2023-05-01T00:27:38.879Z,59.72
2023-05-01T00:30:08.139Z,59.82
2023-05-01T00:32:35.922Z,59.68
2023-05-01T00:35:03.816Z,59.62
2023-05-01T00:37:31.582Z,59.21
2023-05-01T00:39:59.711Z,59.16
2023-05-01T00:42:27.693Z,59.49
2023-05-01T00:44:56.024Z,59.70
2023-05-01T00:47:23.830Z,59.50
2023-05-01T00:49:52.908Z,59.89
2023-05-01T00:52:20.743Z,59.69
2023-05-01T00:54:52.065Z,60.00
2023-05-01T00:57:20.756Z,59.98
2023-05-01T00:59:48.796Z,60.08
2023-05-01T01:02:16.544Z,59.76
2023-05-01T01:04:46.373Z,59.66
2023-05-01T01:07:47.724Z,60.10
2023-05-01T01:10:41.464Z,59.87
2023-05-01T01:13:26.681Z,59.74
2023-05-01T01:16:10.314Z,59.94
2023-05-01T01:18:53.587Z,59.53
2023-05-01T01:21:24.423Z,59.55
2023-05-01T01:24:23.598Z,59.66
2023-05-01T01:26:57.167Z,59.70
2023-05-01T01:29:34.166Z,60.14
2023-05-01T01:32:17.124Z,60.39
2023-05-01T01:34:48.571Z,60.49
2023-05-01T01:37:29.684Z,60.33
2023-05-01T01:40:07.578Z,60.45
2023-05-01T01:42:43.329Z,60.56
2023-05-01T01:45:20.022Z,60.45
2023-05-01T01:47:48.456Z,60.39
2023-05-01T01:50:17.597Z,60.46
2023-05-01T01:52:47.929Z,60.73
2023-05-01T01:55:17.126Z,60.64
2023-05-01T01:57:45.488Z,60.69
2023-05-01T02:00:14.156Z,60.85
2023-05-01T02:02:44.418Z,60.93
2023-05-01T02:05:15.080Z,61.42
2023-05-01T02:07:46.346Z,61.77
2023-05-01T02:10:16.153Z,61.61
2023-05-01T02:12:46.480Z,61.45
2023-05-01T02:15:17.237Z,61.28
2023-05-01T02:17:45.806Z,61.55
2023-05-01T02:20:13.794Z,61.36
2023-05-01T02:22:42.446Z,61.30
2023-05-01T02:25:11.980Z,61.21
2023-05-01T02:27:50.363Z,60.99
2023-05-01T02:30:18.857Z,60.83
2023-05-01T02:32:46.685Z,61.00
2023-05-01T02:35:14.490Z,61.08
2023-05-01T02:37:42.933Z,61.04
2023-05-01T02:40:12.546Z,61.16
2023-05-01T02:42:42.408Z,61.16
2023-05-01T02:45:13.169Z,61.15
2023-05-01T02:47:41.485Z,61.20
2023-05-01T02:50:10.224Z,61.22
2023-05-01T02:52:38.478Z,61.23
2023-05-01T02:55:27.195Z,61.22
2023-05-01T02:57:59.300Z,61.15
2023-05-01T03:00:27.814Z,61.21
2023-05-01T03:02:55.654Z,61.01
2023-05-01T03:05:23.545Z,61.18
2023-05-01T03:07:51.400Z,61.27
2023-05-01T03:10:19.275Z,61.29
2023-05-01T03:12:47.100Z,61.37
2023-05-01T03:15:14.933Z,61.03
2023-05-01T03:17:43.349Z,61.24
2023-05-01T03:20:11.786Z,61.36
2023-05-01T03:22:39.785Z,61.60
2023-05-01T03:25:09.365Z,61.24
2023-05-01T03:27:37.436Z,60.87
2023-05-01T03:30:06.072Z,60.99
2023-05-01T03:32:34.894Z,60.98
2023-05-01T03:35:02.936Z,61.01
2023-05-01T03:37:30.702Z,60.96
2023-05-01T03:39:58.655Z,61.17
2023-05-01T03:42:45.521Z,61.36
2023-05-01T03:45:19.623Z,61.67
2023-05-01T03:47:47.596Z,61.51
2023-05-01T03:50:16.409Z,61.38
2023-05-01T03:52:45.020Z,61.30
2023-05-01T03:55:12.893Z,61.27
2023-05-01T03:57:47.108Z,61.27
2023-05-01T04:00:15.224Z,61.44
2023-05-01T04:02:47.579Z,61.65
2023-05-01T04:05:19.272Z,61.54
2023-05-01T04:07:51.033Z,61.27
2023-05-01T04:10:18.928Z,61.49
2023-05-01T04:12:55.208Z,61.46
2023-05-01T04:15:23.038Z,61.70
2023-05-01T04:17:51.246Z,61.86
2023-05-01T04:20:19.562Z,61.93
2023-05-01T04:22:47.869Z,61.87
2023-05-01T04:25:15.821Z,61.69
2023-05-01T04:27:44.095Z,61.65
2023-05-01T04:30:12.212Z,61.50
2023-05-01T04:32:40.673Z,61.66
2023-05-01T04:35:09.650Z,62.23
2023-05-01T04:37:38.308Z,62.13
2023-05-01T04:40:08.097Z,62.12
2023-05-01T04:42:37.048Z,61.96
2023-05-01T04:45:05.426Z,61.92
2023-05-01T04:47:35.831Z,61.99
2023-05-01T04:50:04.369Z,61.80
2023-05-01T04:52:32.651Z,61.89
2023-05-01T04:55:03.747Z,61.58
2023-05-01T04:57:32.584Z,61.43
2023-05-01T05:00:01.278Z,61.39
2023-05-01T05:02:31.843Z,61.08
2023-05-01T05:04:59.740Z,60.96
2023-05-01T05:07:27.518Z,60.49
2023-05-01T05:10:21.908Z,60.38
2023-05-01T05:12:59.606Z,59.80
2023-05-01T05:15:27.651Z,58.89
2023-05-01T05:17:56.594Z,58.78
2023-05-01T05:20:26.097Z,57.83
2023-05-01T05:22:53.976Z,57.25
2023-05-01T05:25:24.477Z,56.70
2023-05-01T05:27:53.190Z,56.13
2023-05-01T05:30:21.312Z,55.70
2023-05-01T05:32:49.661Z,55.18
2023-05-01T05:35:17.616Z,54.56
2023-05-01T05:37:46.265Z,54.43
2023-05-01T05:40:14.641Z,54.01
2023-05-01T05:42:53.513Z,54.07
2023-05-01T05:45:21.280Z,53.93
2023-05-01T05:47:49.386Z,54.19
2023-05-01T05:50:17.421Z,54.06
2023-05-01T05:52:46.117Z,53.28
2023-05-01T05:55:14.146Z,53.01
2023-05-01T05:57:43.787Z,52.85
2023-05-01T06:00:12.730Z,52.82
2023-05-01T06:02:44.676Z,52.85
2023-05-01T06:05:13.465Z,52.63
2023-05-01T06:07:41.328Z,53.03
2023-05-01T06:10:09.789Z,53.27
2023-05-01T06:12:39.298Z,52.79
2023-05-01T06:15:17.001Z,52.12
2023-05-01T06:17:48.894Z,51.81
2023-05-01T06:20:16.909Z,51.44
2023-05-01T06:22:45.246Z,51.46
2023-05-01T06:25:17.695Z,51.18
2023-05-01T06:27:45.852Z,50.81
2023-05-01T06:30:13.747Z,50.73
2023-05-01T06:32:45.768Z,50.11
2023-05-01T06:35:14.484Z,49.48
2023-05-01T06:37:42.217Z,49.55
2023-05-01T06:40:11.624Z,49.76
2023-05-01T06:42:40.251Z,50.04
2023-05-01T06:45:08.431Z,50.01
2023-05-01T06:47:36.456Z,49.90
2023-05-01T06:50:05.663Z,49.39
2023-05-01T06:52:34.424Z,49.25
2023-05-01T06:55:02.208Z,48.91
2023-05-01T06:57:31.173Z,48.58
2023-05-01T06:59:59.222Z,48.40
2023-05-01T07:02:27.385Z,48.17
2023-05-01T07:04:55.525Z,48.01
2023-05-01T07:07:23.650Z,47.84
2023-05-01T07:09:51.606Z,47.86
2023-05-01T07:12:19.411Z,47.81
2023-05-01T07:14:47.445Z,47.95
2023-05-01T07:17:15.831Z,47.46
2023-05-01T07:19:43.511Z,47.22
2023-05-01T07:22:11.215Z,46.65
2023-05-01T07:24:38.978Z,46.26
2023-05-01T07:27:06.709Z,46.00
2023-05-01T07:29:37.470Z,45.81
2023-05-01T07:32:07.159Z,45.32
2023-05-01T07:34:35.008Z,45.30
2023-05-01T07:37:04.787Z,45.04
2023-05-01T07:39:32.618Z,44.75
2023-05-01T07:42:00.599Z,44.61
2023-05-01T07:44:28.396Z,43.73
2023-05-01T07:46:56.161Z,42.26
2023-05-01T07:49:24.495Z,42.14
2023-05-01T07:51:52.550Z,42.09
2023-05-01T07:54:22.162Z,41.72
2023-05-01T07:56:50.070Z,41.77
2023-05-01T07:59:17.811Z,41.94
2023-05-01T13:02:36.460Z,19.84
2023-05-01T13:05:11.126Z,20.13
2023-05-01T13:07:41.701Z,19.69
2023-05-01T13:10:10.598Z,20.32
2023-05-01T13:12:44.727Z,19.88
2023-05-01T13:15:22.235Z,19.77
2023-05-01T13:17:50.154Z,20.10
2023-05-01T13:20:26.802Z,20.45
2023-05-01T13:22:54.720Z,19.92
2023-05-01T13:25:23.379Z,19.10
2023-05-01T13:27:54.113Z,18.41
2023-05-01T13:30:33.318Z,18.65
2023-05-01T13:33:02.034Z,18.37
2023-05-01T13:35:30.683Z,18.24
2023-05-01T13:37:58.454Z,18.95
2023-05-01T13:40:26.521Z,18.15
2023-05-01T13:42:54.334Z,18.58
2023-05-01T13:45:22.257Z,18.01
2023-05-01T13:47:51.914Z,18.53
2023-05-01T13:50:19.777Z,18.45
2023-05-01T13:52:48.430Z,18.44
2023-05-01T13:55:17.619Z,18.70
2023-05-01T13:57:45.480Z,18.04
2023-05-01T14:00:17.817Z,17.69
2023-05-01T14:02:50.157Z,17.93
2023-05-01T14:05:23.605Z,18.17
2023-05-01T14:07:55.335Z,18.21
2023-05-01T14:10:28.032Z,17.33
2023-05-01T14:12:59.744Z,16.53
2023-05-01T14:15:28.746Z,16.14
2023-05-01T14:17:56.675Z,15.95
2023-05-01T14:20:25.366Z,15.83
2023-05-01T14:22:53.641Z,16.39
2023-05-01T14:25:30.608Z,16.40
2023-05-01T14:28:00.493Z,16.20
2023-05-01T14:30:37.586Z,16.35
2023-05-01T14:33:09.637Z,17.20
2023-05-01T14:35:48.814Z,16.98
2023-05-01T14:38:18.780Z,16.61
2023-05-01T14:40:46.883Z,16.32
2023-05-01T14:43:20.124Z,16.81
2023-05-01T14:45:49.929Z,17.12
2023-05-01T14:48:30.519Z,17.05
2023-05-01T14:50:59.487Z,17.35
2023-05-01T14:53:32.318Z,17.63
2023-05-01T14:56:00.116Z,17.75
2023-05-01T14:58:28.236Z,17.20
2023-05-01T15:00:57.453Z,16.43
2023-05-01T15:03:25.517Z,15.80
2023-05-01T15:05:53.326Z,15.70
2023-05-01T15:08:21.581Z,15.13
2023-05-01T15:10:49.337Z,14.65
2023-05-01T15:13:17.080Z,13.72
2023-05-01T15:15:44.812Z,13.13
2023-05-01T15:18:12.603Z,13.30
2023-05-01T15:20:40.989Z,12.75
2023-05-01T15:23:10.646Z,12.46
2023-05-01T15:25:38.476Z,12.28
2023-05-01T15:28:06.202Z,11.99
2023-05-01T15:30:33.997Z,12.34
2023-05-01T15:33:01.818Z,12.66
2023-05-01T15:35:30.191Z,13.19
2023-05-01T15:37:58.112Z,13.30
2023-05-01T15:40:26.206Z,14.04
2023-05-01T15:42:54.416Z,15.15
2023-05-01T15:45:22.234Z,15.50
2023-05-01T15:47:50.069Z,16.02
2023-05-01T15:50:17.845Z,15.71
2023-05-01T15:52:46.127Z,15.78
2023-05-01T15:55:13.934Z,15.60
2023-05-01T15:57:45.610Z,15.60
2023-05-01T16:00:14.629Z,16.31
2023-05-01T16:02:44.623Z,16.25
2023-05-01T16:05:15.158Z,16.48
2023-05-01T16:07:43.791Z,16.58
2023-05-01T16:10:11.913Z,17.00
2023-05-01T16:12:39.678Z,17.65
2023-05-01T16:15:08.836Z,16.64
2023-05-01T16:17:43.749Z,16.13
2023-05-01T16:20:13.156Z,14.83
2023-05-01T16:22:41.880Z,13.50
2023-05-01T16:25:10.609Z,13.14
2023-05-01T16:27:45.914Z,12.69
2023-05-01T16:30:17.080Z,12.93
2023-05-01T16:32:46.300Z,12.31
2023-05-01T16:35:18.370Z,12.00
2023-05-01T16:37:46.236Z,11.74
2023-05-01T16:40:18.043Z,11.64
2023-05-01T16:42:53.393Z,11.09
2023-05-01T16:45:21.705Z,10.99
2023-05-01T16:47:49.832Z,10.49
2023-05-01T16:50:18.295Z,10.65
2023-05-01T16:52:46.029Z,10.99
2023-05-01T16:55:13.830Z,10.96
2023-05-01T16:57:44.278Z,10.72
2023-05-01T17:00:14.110Z,10.67
2023-05-01T17:02:42.128Z,10.81
2023-05-01T17:05:09.969Z,10.79
2023-05-01T17:07:37.759Z,10.97
2023-05-01T17:10:06.482Z,11.42
2023-05-01T17:12:34.367Z,11.63
2023-05-01T17:15:02.599Z,12.31
2023-05-01T17:17:30.952Z,13.70
2023-05-01T17:19:59.181Z,14.43
2023-05-01T17:22:29.061Z,16.14
2023-05-01T17:24:57.703Z,16.92
2023-05-01T17:27:25.457Z,18.31
2023-05-01T17:29:53.167Z,19.52
2023-05-01T17:32:35.847Z,20.34
2023-05-01T17:35:05.131Z,21.49
2023-05-01T17:37:33.257Z,22.26
2023-05-01T17:40:01.862Z,23.26
2023-05-01T17:42:30.019Z,24.07
2023-05-01T17:44:57.874Z,24.71
2023-05-01T17:47:26.361Z,25.04
2023-05-01T17:49:54.273Z,25.86
2023-05-01T17:52:22.236Z,26.77
2023-05-01T17:54:49.931Z,27.40
2023-05-01T17:57:17.662Z,27.50
2023-05-01T17:59:45.909Z,28.14
2023-05-01T18:02:13.778Z,28.60
2023-05-01T18:04:41.576Z,29.41
2023-05-01T18:07:09.531Z,29.60
2023-05-01T18:09:37.217Z,30.42
2023-05-01T18:12:05.711Z,31.60
2023-05-01T18:14:33.538Z,31.89
2023-05-01T18:17:01.364Z,32.41
2023-05-01T18:19:29.402Z,33.03
2023-05-01T18:21:57.562Z,33.22
2023-05-01T18:24:25.276Z,33.93
2023-05-01T18:26:53.090Z,34.08
2023-05-01T18:29:22.821Z,34.58
2023-05-01T18:31:51.121Z,35.13
2023-05-01T18:34:19.702Z,35.67
2023-05-01T18:36:52.003Z,36.01
2023-05-01T18:39:23.116Z,35.90
2023-05-01T18:41:51.306Z,35.19
2023-05-01T18:44:19.222Z,36.03
2023-05-01T18:46:46.995Z,36.60
2023-05-01T18:49:14.875Z,36.93
2023-05-01T18:51:42.745Z,37.24
2023-05-01T18:54:10.663Z,38.04
2023-05-01T18:56:38.403Z,38.08
2023-05-01T18:59:07.504Z,38.32
2023-05-01T19:01:36.344Z,38.10
2023-05-01T19:04:04.440Z,39.21
2023-05-01T19:06:32.703Z,39.77
2023-05-01T19:09:00.976Z,39.66
2023-05-01T19:11:31.748Z,39.84
2023-05-01T19:13:59.619Z,39.78
2023-05-01T19:16:27.372Z,40.15
2023-05-01T19:18:55.117Z,40.29
2023-05-01T19:21:23.266Z,40.63
2023-05-01T19:23:51.096Z,40.82
2023-05-01T19:26:18.903Z,41.32
2023-05-01T19:28:46.955Z,41.13
2023-05-01T19:31:19.025Z,41.78
2023-05-01T19:33:50.751Z,41.82
2023-05-01T19:36:18.607Z,42.01
2023-05-01T19:38:46.661Z,42.10
2023-05-01T19:41:14.613Z,42.41
2023-05-01T19:43:43.629Z,42.96
2023-05-01T19:46:15.300Z,42.63
2023-05-01T19:48:52.631Z,42.50
2023-05-01T19:51:23.162Z,42.89
2023-05-01T19:53:53.889Z,43.22
2023-05-01T19:56:21.769Z,42.93
2023-05-01T19:58:49.618Z,43.54
2023-05-01T20:01:17.642Z,43.73
2023-05-01T20:03:45.763Z,44.00
2023-05-01T20:06:14.554Z,44.11
2023-05-01T20:08:42.836Z,44.41
2023-05-01T20:11:10.988Z,44.68
2023-05-01T20:13:38.761Z,45.01
2023-05-01T20:16:06.867Z,45.13
2023-05-01T20:18:34.835Z,45.63
2023-05-01T20:21:02.923Z,45.35
2023-05-01T20:23:31.007Z,45.39
2023-05-01T20:25:59.927Z,45.86
2023-05-01T20:28:28.552Z,45.86
2023-05-01T20:30:56.727Z,46.48
2023-05-01T20:33:24.812Z,46.87
2023-05-01T20:35:53.095Z,46.72
2023-05-01T20:38:21.964Z,47.24
2023-05-01T20:40:50.014Z,47.42
2023-05-01T20:43:17.786Z,47.75
2023-05-01T20:45:45.523Z,48.15
2023-05-01T20:48:13.402Z,47.99
2023-05-01T20:50:48.886Z,48.36
2023-05-01T20:53:16.872Z,48.25
2023-05-01T20:55:44.746Z,48.52
2023-05-01T20:58:12.604Z,48.70
2023-05-01T21:00:40.403Z,48.69
2023-05-01T21:03:09.401Z,49.02
2023-05-01T21:05:37.250Z,49.34
2023-05-01T21:08:05.098Z,49.57
2023-05-01T21:10:32.878Z,49.71
2023-05-01T21:13:00.899Z,49.87
2023-05-01T21:15:31.161Z,50.00
2023-05-01T21:17:58.893Z,49.99
2023-05-01T21:20:31.530Z,50.14
2023-05-01T21:23:00.829Z,50.39
2023-05-01T21:25:30.035Z,50.51
2023-05-01T21:28:02.028Z,50.71
2023-05-01T21:30:34.748Z,50.65
2023-05-01T21:33:07.998Z,50.58
2023-05-01T21:35:36.025Z,50.47
2023-05-01T21:38:04.611Z,50.41
2023-05-01T21:40:40.151Z,50.40
2023-05-01T21:43:08.746Z,51.02
2023-05-01T21:45:40.573Z,51.47
2023-05-01T21:48:09.447Z,51.84
2023-05-01T21:50:40.116Z,51.65
2023-05-01T21:53:08.329Z,51.31
2023-05-01T21:55:36.128Z,51.08
2023-05-01T21:58:04.124Z,51.04
2023-05-01T22:00:33.018Z,51.08
2023-05-01T22:03:05.773Z,51.46
2023-05-01T22:05:34.495Z,51.10
2023-05-01T22:08:02.225Z,51.06
2023-05-01T22:10:29.961Z,51.24
2023-05-01T22:12:57.726Z,51.27
2023-05-01T22:15:25.773Z,51.19
2023-05-01T22:17:53.626Z,51.39
2023-05-01T22:20:21.384Z,51.30
2023-05-01T22:22:49.603Z,51.48
2023-05-01T22:25:17.458Z,51.62
2023-05-01T22:27:45.438Z,51.61
2023-05-01T22:30:13.372Z,51.68
2023-05-01T22:32:41.264Z,51.81
2023-05-01T22:35:09.257Z,52.06
2023-05-01T22:37:37.006Z,51.84
2023-05-01T22:40:05.734Z,51.61
2023-05-01T22:42:33.433Z,52.03
2023-05-01T22:45:01.152Z,52.33
2023-05-01T22:47:29.026Z,52.89
2023-05-01T22:49:57.058Z,53.24
2023-05-01T22:52:25.154Z,53.48
2023-05-01T22:54:53.095Z,53.80
2023-05-01T22:57:20.921Z,53.95
2023-05-01T22:59:48.895Z,54.12
2023-05-01T23:02:17.608Z,54.27
2023-05-01T23:04:45.848Z,54.63
2023-05-01T23:07:13.781Z,54.34
2023-05-01T23:09:41.861Z,54.61
2023-05-01T23:12:17.701Z,55.01
2023-05-01T23:14:46.356Z,55.05
2023-05-01T23:17:14.985Z,55.68
2023-05-01T23:19:43.772Z,56.01
2023-05-01T23:22:14.645Z,55.97
2023-05-01T23:24:44.748Z,55.99
2023-05-01T23:27:16.943Z,55.90
2023-05-01T23:29:57.339Z,56.20
2023-05-01T23:32:30.721Z,56.27
2023-05-01T23:35:16.176Z,56.16
2023-05-01T23:37:44.020Z,56.06
2023-05-01T23:40:12.065Z,56.23
2023-05-01T23:42:39.842Z,56.16
2023-05-01T23:45:09.745Z,56.34
2023-05-01T23:47:38.708Z,56.25
2023-05-01T23:50:07.278Z,56.33
2023-05-01T23:52:35.369Z,56.40
2023-05-01T23:55:03.202Z,56.20
2023-05-01T23:57:30.939Z,56.11
2023-05-01T23:59:58.829Z,56.49
